Terminal Aerodrome Forecast
Issued by NWS

Home | Current Version | Previous Version | Text Only | Print | Product List | Glossary Off
Versions: 1 2 3 4 5 6 7 8 9 10 11 12 13 14 15 16 17 18 19 20

000
FTUS43 KTOP 191600 AAA
TAFFOE
TAF AMD
KFOE 191615Z 1916/2012 VRB02KT 3SM BR OVC003
     FM191800 15003KT 6SM BR OVC006
     FM192100 18005KT 6SM BR OVC011
     FM200200 18004KT 5SM BR OVC006=

USA.gov is the U.S. government's official web portal to all federal, state and local government web resources and services.